Skip to main content

'09 HH Vintage Syrian - 3.5oz - Large Tin 《No Reserve!》

Auction Closed

Sold for: $125.00[30 Bids]

Reserve: [n/a]Winner: 13191761000

  • Auction closed
  • Bidding Over
  • First Bid: 2 years ago
  • Last Bid: 2 years ago
  • Shipping: n/a

Ends:


Days


Hours


Minutes


Seconds

Description

    -Now discontinued - HH Vintage Syrian from May 2009. Almost 15 years old! A true representation of Syrian Latakia, something we will likely never see in production again in our lifetime.

    Always stored in a temperature and humidity controlled cellar.

    Seller

    WillyK

    227 total auctions

    0 current auctions

    Auction Information
    • 13191761000 bid $125.00February 25, 2024 7:48 pm

    • adjdsp bid $123.00February 25, 2024 10:20 am

    • 13191761000 bid $121.00February 25, 2024 10:19 am [auto]

    • adjdsp bid $120.00February 25, 2024 10:19 am

    • 13191761000 bid $112.00February 25, 2024 10:19 am [auto]

    • adjdsp bid $110.00February 25, 2024 10:19 am

    • 13191761000 bid $106.00February 25, 2024 10:17 am [auto]

    • adjdsp bid $104.00February 25, 2024 10:17 am

    • 13191761000 bid $102.00February 25, 2024 10:17 am [auto]

    • adjdsp bid $100.00February 25, 2024 10:17 am

    • 13191761000 bid $92.00February 25, 2024 10:17 am [auto]

    • adjdsp bid $90.00February 25, 2024 10:17 am

    • 13191761000 bid $87.00February 25, 2024 10:05 am

    • adjdsp bid $77.60February 24, 2024 10:21 am

    • hyh019 bid $75.60February 24, 2024 9:54 am

    • adjdsp bid $73.60February 24, 2024 9:54 am [auto]

    • hyh019 bid $71.60February 24, 2024 9:54 am

    • adjdsp bid $69.60February 23, 2024 10:09 am

    • Flipped bid $57.55February 23, 2024 4:51 am [auto]

    • Morta Lover bid $55.55February 23, 2024 4:51 am

    • Flipped bid $52.00February 23, 2024 1:03 am [auto]

    • Charliema2000 bid $50.00February 23, 2024 1:03 am

    • Flipped bid $10.50February 22, 2024 10:47 pm [auto]

    • qmechanics bid $10.00February 22, 2024 10:47 pm

    • Flipped bid $7.75February 22, 2024 10:47 pm [auto]

    • qmechanics bid $7.50February 22, 2024 10:47 pm

    • Flipped bid $5.50February 22, 2024 10:47 pm [auto]

    • qmechanics bid $5.25February 22, 2024 10:47 pm

    • Flipped bid $5.00February 22, 2024 7:51 pm [increased max bid]

    • Flipped bid $5.00February 22, 2024 7:51 pm

    Shipping: $10.40

    From: n/a

    To: n/a

    (Ended) '09 HH Vintage Syrian - 3.5oz - Large Tin 《No Reserve!》

    -Now discontinued - HH Vintage Syrian from May 2009. Almost 15 years old! A true representation of Syrian Latakia, something we will likely never see in production again in our lifetime.

    Always stored in a temperature and humidity controlled cellar.

    This auction contains tobacco.  If you live in certain states, you will be unable to purchase this product.

    Bid History (30 Bids)

    Show Bids
    # Amount Bidder Type Date
    30 $125.00 1***0 New 25 Feb 2024 @ 8:48:48pm
    29 $123.00 a***p New 25 Feb 2024 @ 11:20:07am
    28 $121.00 1***0 Auto 25 Feb 2024 @ 11:19:58am
    27 $120.00 a***p Outbid 25 Feb 2024 @ 11:19:58am
    26 $121.00 1***0 Auto 25 Feb 2024 @ 11:19:46am
    25 $110.00 a***p Outbid 25 Feb 2024 @ 11:19:46am
    24 $121.00 1***0 Auto 25 Feb 2024 @ 11:17:52am
    23 $104.00 a***p Outbid 25 Feb 2024 @ 11:17:52am
    22 $121.00 1***0 Auto 25 Feb 2024 @ 11:17:36am
    21 $100.00 a***p Outbid 25 Feb 2024 @ 11:17:36am
    20 $121.00 1***0 Auto 25 Feb 2024 @ 11:17:20am
    19 $90.00 a***p Outbid 25 Feb 2024 @ 11:17:20am
    18 $121.00 1***0 New 25 Feb 2024 @ 11:05:30am
    17 $85.00 a***p New 24 Feb 2024 @ 11:21:24am
    16 $75.60 h***9 New 24 Feb 2024 @ 10:54:51am
    15 $75.00 a***p Auto 24 Feb 2024 @ 10:54:38am
    14 $71.60 h***9 Outbid 24 Feb 2024 @ 10:54:38am
    13 $75.00 a***p New 23 Feb 2024 @ 11:09:15am
    12 $67.60 F***d Auto 23 Feb 2024 @ 5:51:33am
    11 $55.55 M***r Outbid 23 Feb 2024 @ 5:51:33am
    10 $67.60 F***d Auto 23 Feb 2024 @ 2:03:10am
    9 $50.00 C***0 Outbid 23 Feb 2024 @ 2:03:10am
    8 $67.60 F***d Auto 22 Feb 2024 @ 11:47:57pm
    7 $10.00 q***s Outbid 22 Feb 2024 @ 11:47:57pm
    6 $67.60 F***d Auto 22 Feb 2024 @ 11:47:49pm
    5 $7.50 q***s Outbid 22 Feb 2024 @ 11:47:49pm
    4 $67.60 F***d Auto 22 Feb 2024 @ 11:47:38pm
    3 $5.25 q***s Outbid 22 Feb 2024 @ 11:47:38pm
    2 $67.60 F***d Advance 22 Feb 2024 @ 8:51:37pm
    1 $5.00 F***d New 22 Feb 2024 @ 8:51:15pm
    $5.00   Start 22 Feb 2024 @ 8:48:55pm
    The auction has ended!

    Ending Price

    125.00